»·PEaware :: N698J KSAD-KTUS

N698J :: KSAD-KTUS

FLIGHT INFORMATION

Flight Status: Arrived
Operator: Privately registered:
United States
More flights under this callsign
Pilot: Ahmad S. (5672)
Aircraft: BEECH AIRCRAFT BARON
(BE58)
More flights by this aircraft type
Origin: KSAD Safford Regl
United States
Destination: KTUS Tucson Intl
United States
More flights between these airports :: More routes between these airports
Route: SAFRD1 SSO V16 TUS
File this flight plan on PilotEdge
Remarks:
Altitude:
(Current/Filed)
12,000ft
Speed:
(Current/Filed)
175kts
Departed: 11-Dec-20 12:12 PM
Arrived: 11-Dec-20 01:04 PM
Distance/Time
Traveled:
79nm/0:52
Distance/Time
To Go:
Arrived

Flight Plot

Page will automatically refresh every two minutes.

Flight plan parsing failed; only flown route is shown


Map Options




Map Legend


Flown Route
Filed Route
Departure Airport
Arrival Airport
Navaid (VOR, NDB)
Fix

Horizontal Profiles

Position Reports

Time Latitude Longitude Heading Altitude Ground
Speed
11-Dec-20 11:31 32.853035 -109.638688 182 3168ft 0kts
11-Dec-20 11:33 32.853035 -109.638688 182 3168ft 0kts
11-Dec-20 11:33 32.853035 -109.638688 182 3168ft 0kts
11-Dec-20 11:34 32.853035 -109.638688 182 3168ft 0kts
11-Dec-20 11:35 32.853035 -109.638688 182 3168ft 0kts
11-Dec-20 11:36 32.853035 -109.638688 182 3168ft 0kts
11-Dec-20 11:37 32.853035 -109.638688 182 3168ft 0kts
11-Dec-20 11:38 32.853035 -109.638688 182 3168ft 0kts
11-Dec-20 11:39 32.853035 -109.638688 182 3168ft 0kts
11-Dec-20 11:40 32.853035 -109.638688 182 3168ft 0kts
11-Dec-20 11:41 32.853035 -109.638688 182 3168ft 0kts
11-Dec-20 11:42 32.853035 -109.638688 182 3168ft 0kts
11-Dec-20 11:43 32.853035 -109.638688 182 3168ft 0kts
11-Dec-20 11:44 32.853035 -109.638688 182 3168ft 0kts
11-Dec-20 11:45 32.853035 -109.638688 182 3168ft 0kts
11-Dec-20 11:46 32.853035 -109.638688 182 3168ft 0kts
11-Dec-20 11:47 32.853035 -109.638688 182 3168ft 0kts
11-Dec-20 11:48 32.853035 -109.638688 182 3168ft 0kts
11-Dec-20 11:49 32.853035 -109.638688 182 3168ft 0kts
11-Dec-20 11:54 32.851493 -109.636367 231 3171ft 0kts
11-Dec-20 11:55 32.851493 -109.636367 231 3171ft 0kts
11-Dec-20 11:56 32.851493 -109.636367 231 3171ft 0kts
11-Dec-20 11:57 32.851493 -109.636367 231 3171ft 0kts
11-Dec-20 11:58 32.851493 -109.636367 231 3171ft 0kts
11-Dec-20 11:59 32.851493 -109.636367 231 3171ft 0kts
11-Dec-20 12:00 32.851493 -109.636367 231 3171ft 0kts
11-Dec-20 12:01 32.851493 -109.636367 231 3171ft 0kts
11-Dec-20 12:02 32.851493 -109.636367 231 3171ft 0kts
11-Dec-20 12:03 32.851493 -109.636367 231 3171ft 0kts
11-Dec-20 12:04 32.851493 -109.636367 231 3171ft 0kts
11-Dec-20 12:05 32.851878 -109.636438 80 3170ft 9kts
11-Dec-20 12:06 32.850655 -109.633818 137 3170ft 13kts
11-Dec-20 12:07 32.846824 -109.629428 139 3172ft 12kts
11-Dec-20 12:08 32.846587 -109.629111 87 3172ft 0kts
11-Dec-20 12:09 32.846587 -109.629111 87 3172ft 0kts
11-Dec-20 12:10 32.847375 -109.628978 315 3172ft 21kts
11-Dec-20 12:11 32.870544 -109.656224 317 3970ft 160kts
11-Dec-20 12:12 32.874015 -109.695395 187 5557ft 166kts
11-Dec-20 12:13 32.845290 -109.655268 125 7053ft 172kts
11-Dec-20 12:14 32.807704 -109.620355 154 8329ft 174kts
11-Dec-20 12:15 32.764833 -109.592202 147 9410ft 177kts
11-Dec-20 12:16 32.721958 -109.562337 153 10332ft 180kts
11-Dec-20 12:17 32.677538 -109.533742 151 11113ft 184kts
11-Dec-20 12:18 32.632450 -109.502799 154 11777ft 188kts
11-Dec-20 12:19 32.584502 -109.471858 153 11949ft 201kts
11-Dec-20 12:20 32.535644 -109.438679 154 11959ft 202kts
11-Dec-20 12:21 32.486284 -109.406625 153 11959ft 202kts
11-Dec-20 12:22 32.437332 -109.373747 154 11959ft 202kts
11-Dec-20 12:23 32.388097 -109.341593 153 11924ft 202kts
11-Dec-20 12:24 32.339178 -109.309048 154 11919ft 201kts
11-Dec-20 12:25 32.290025 -109.276827 154 11917ft 201kts
11-Dec-20 12:26 32.253802 -109.298024 266 11916ft 180kts
11-Dec-20 12:27 32.256604 -109.357449 271 11913ft 181kts
11-Dec-20 12:28 32.254605 -109.416902 263 11914ft 181kts
11-Dec-20 12:29 32.247519 -109.475899 262 11912ft 181kts
11-Dec-20 12:30 32.242480 -109.535267 263 11902ft 180kts
11-Dec-20 12:31 32.235836 -109.594452 262 11911ft 182kts
11-Dec-20 12:32 32.230214 -109.654178 263 11915ft 184kts
11-Dec-20 12:33 32.223774 -109.714313 262 11905ft 184kts
11-Dec-20 12:34 32.217812 -109.774209 263 11908ft 183kts
11-Dec-20 12:35 32.211574 -109.834045 262 11909ft 183kts
11-Dec-20 12:36 32.205374 -109.893877 262 11909ft 183kts
11-Dec-20 12:37 32.199211 -109.953681 262 11909ft 183kts
11-Dec-20 12:38 32.192853 -110.013653 262 11908ft 183kts
11-Dec-20 12:39 32.186666 -110.073588 262 11913ft 184kts
11-Dec-20 12:40 32.180226 -110.133615 262 11912ft 184kts
11-Dec-20 12:41 32.173972 -110.193603 261 11911ft 184kts
11-Dec-20 12:42 32.167458 -110.253508 261 11917ft 184kts
11-Dec-20 12:43 32.161256 -110.313745 262 11907ft 184kts
11-Dec-20 12:44 32.154600 -110.373405 262 11907ft 182kts
11-Dec-20 12:45 32.148379 -110.432282 262 11914ft 183kts
11-Dec-20 12:46 32.141904 -110.491688 261 11967ft 181kts
11-Dec-20 12:47 32.139944 -110.551393 276 11739ft 193kts
11-Dec-20 12:48 32.150731 -110.615943 280 10746ft 204kts
11-Dec-20 12:49 32.162428 -110.680579 280 10045ft 195kts
11-Dec-20 12:50 32.173695 -110.743009 280 9981ft 193kts
11-Dec-20 12:51 32.187797 -110.803802 294 9816ft 190kts
11-Dec-20 12:52 32.211750 -110.851330 300 8800ft 143kts
11-Dec-20 12:53 32.211778 -110.891707 231 7805ft 130kts
11-Dec-20 12:54 32.185568 -110.920534 218 6809ft 125kts
11-Dec-20 12:55 32.161782 -110.948823 267 5802ft 124kts
11-Dec-20 12:57 32.172873 -110.985855 241 4809ft 123kts
11-Dec-20 12:58 32.143219 -111.000213 181 3828ft 120kts
11-Dec-20 12:59 32.109949 -110.999821 179 3614ft 122kts
11-Dec-20 13:00 32.115248 -111.022217 353 3601ft 121kts
11-Dec-20 13:01 32.145691 -111.007188 49 3598ft 121kts
11-Dec-20 13:02 32.145612 -110.973566 125 3169ft 92kts
11-Dec-20 13:03 32.127717 -110.952886 135 2718ft 87kts
11-Dec-20 13:04 32.117985 -110.940974 26 2600ft 5kts
11-Dec-20 13:05 32.118586 -110.940972 359 2599ft 0kts
11-Dec-20 13:06 32.118586 -110.940972 359 2599ft 0kts
11-Dec-20 13:07 32.121487 -110.943266 315 2594ft 22kts
11-Dec-20 13:08 32.124146 -110.944833 25 2583ft 8kts
11-Dec-20 13:09 32.124211 -110.944096 123 2585ft 5kts
11-Dec-20 13:10 32.123904 -110.944461 294 2585ft 0kts
11-Dec-20 13:11 32.123904 -110.944461 294 2585ft 0kts
11-Dec-20 13:12 32.123904 -110.944461 294 2585ft 0kts
11-Dec-20 13:12 32.123904 -110.944461 294 2585ft 0kts
11-Dec-20 13:14 32.123904 -110.944461 294 2585ft 0kts
11-Dec-20 13:14 32.123904 -110.944461 294 2585ft 0kts
11-Dec-20 13:16 32.123904 -110.944461 294 2585ft 0kts
11-Dec-20 13:16 32.123904 -110.944461 294 2585ft 0kts

Navigation Log

Ident Type
Flight plan parsing failed, navigation log unavailable